sensor_id;sensor_type;location;lat;lon;timestamp;P1;durP1;ratioP1;P2;durP2;ratioP2
14874;SDS011;7529;48.170;17.138;2022-12-04T00:02:44;50.22;;;46.58;;
14874;SDS011;7529;48.170;17.138;2022-12-04T00:06:56;52.40;;;48.20;;
14874;SDS011;7529;48.170;17.138;2022-12-04T00:11:08;55.63;;;51.80;;
14874;SDS011;7529;48.170;17.138;2022-12-04T00:15:21;53.90;;;50.08;;
14874;SDS011;7529;48.170;17.138;2022-12-04T00:19:32;52.30;;;48.40;;
14874;SDS011;7529;48.170;17.138;2022-12-04T00:23:44;53.17;;;49.05;;
14874;SDS011;7529;48.170;17.138;2022-12-04T00:27:57;51.63;;;47.85;;
14874;SDS011;7529;48.170;17.138;2022-12-04T00:32:09;48.92;;;45.25;;
14874;SDS011;7529;48.170;17.138;2022-12-04T00:36:22;54.70;;;50.72;;
14874;SDS011;7529;48.170;17.138;2022-12-04T00:40:34;51.85;;;47.75;;
14874;SDS011;7529;48.170;17.138;2022-12-04T00:44:46;49.95;;;46.35;;
14874;SDS011;7529;48.170;17.138;2022-12-04T00:48:57;55.83;;;51.72;;
14874;SDS011;7529;48.170;17.138;2022-12-04T00:53:12;55.30;;;51.50;;
14874;SDS011;7529;48.170;17.138;2022-12-04T00:57:23;58.53;;;54.55;;
14874;SDS011;7529;48.170;17.138;2022-12-04T01:01:35;57.80;;;53.30;;
14874;SDS011;7529;48.170;17.138;2022-12-04T01:05:46;25.20;;;23.10;;
14874;SDS011;7529;48.170;17.138;2022-12-04T01:09:58;23.88;;;21.92;;
14874;SDS011;7529;48.170;17.138;2022-12-04T01:14:10;25.10;;;23.20;;
14874;SDS011;7529;48.170;17.138;2022-12-04T01:18:21;34.08;;;31.27;;
14874;SDS011;7529;48.170;17.138;2022-12-04T01:22:33;37.33;;;34.30;;
14874;SDS011;7529;48.170;17.138;2022-12-04T01:26:44;24.48;;;22.38;;
14874;SDS011;7529;48.170;17.138;2022-12-04T01:31:00;24.23;;;22.20;;
14874;SDS011;7529;48.170;17.138;2022-12-04T01:35:15;23.33;;;21.52;;
14874;SDS011;7529;48.170;17.138;2022-12-04T01:39:27;21.75;;;20.25;;
14874;SDS011;7529;48.170;17.138;2022-12-04T01:43:39;36.22;;;33.38;;
14874;SDS011;7529;48.170;17.138;2022-12-04T01:47:55;38.75;;;35.67;;
14874;SDS011;7529;48.170;17.138;2022-12-04T01:52:18;22.67;;;20.88;;
14874;SDS011;7529;48.170;17.138;2022-12-04T02:01:18;25.20;;;22.77;;
14874;SDS011;7529;48.170;17.138;2022-12-04T02:05:30;22.65;;;20.85;;
14874;SDS011;7529;48.170;17.138;2022-12-04T02:09:41;25.27;;;23.27;;
14874;SDS011;7529;48.170;17.138;2022-12-04T02:28:04;38.78;;;35.85;;
14874;SDS011;7529;48.170;17.138;2022-12-04T02:36:56;40.83;;;37.65;;
14874;SDS011;7529;48.170;17.138;2022-12-04T02:41:21;22.58;;;20.35;;
14874;SDS011;7529;48.170;17.138;2022-12-04T02:45:37;27.02;;;24.60;;
14874;SDS011;7529;48.170;17.138;2022-12-04T02:49:58;25.05;;;23.15;;
14874;SDS011;7529;48.170;17.138;2022-12-04T02:54:18;23.90;;;22.10;;
14874;SDS011;7529;48.170;17.138;2022-12-04T02:58:51;39.85;;;36.75;;
14874;SDS011;7529;48.170;17.138;2022-12-04T03:03:13;36.10;;;33.20;;
14874;SDS011;7529;48.170;17.138;2022-12-04T03:07:33;25.95;;;23.80;;
14874;SDS011;7529;48.170;17.138;2022-12-04T03:11:52;25.48;;;23.42;;
14874;SDS011;7529;48.170;17.138;2022-12-04T03:16:28;49.42;;;45.47;;
14874;SDS011;7529;48.170;17.138;2022-12-04T03:20:43;22.80;;;20.65;;
14874;SDS011;7529;48.170;17.138;2022-12-04T03:24:58;37.55;;;34.47;;
14874;SDS011;7529;48.170;17.138;2022-12-04T03:29:15;22.83;;;21.08;;
14874;SDS011;7529;48.170;17.138;2022-12-04T03:33:41;24.08;;;22.27;;
14874;SDS011;7529;48.170;17.138;2022-12-04T03:38:04;40.60;;;36.83;;
14874;SDS011;7529;48.170;17.138;2022-12-04T03:42:38;22.38;;;20.67;;
14874;SDS011;7529;48.170;17.138;2022-12-04T03:47:06;22.15;;;20.27;;
14874;SDS011;7529;48.170;17.138;2022-12-04T03:51:27;32.13;;;29.85;;
14874;SDS011;7529;48.170;17.138;2022-12-04T04:00:15;45.58;;;42.15;;
14874;SDS011;7529;48.170;17.138;2022-12-04T04:04:33;38.13;;;35.20;;
14874;SDS011;7529;48.170;17.138;2022-12-04T04:08:47;44.40;;;41.38;;
14874;SDS011;7529;48.170;17.138;2022-12-04T04:13:01;47.65;;;44.60;;
14874;SDS011;7529;48.170;17.138;2022-12-04T04:17:33;48.97;;;45.90;;
14874;SDS011;7529;48.170;17.138;2022-12-04T04:22:06;47.05;;;43.67;;
14874;SDS011;7529;48.170;17.138;2022-12-04T04:26:40;51.40;;;47.90;;
14874;SDS011;7529;48.170;17.138;2022-12-04T04:30:53;50.33;;;47.08;;
14874;SDS011;7529;48.170;17.138;2022-12-04T04:39:51;53.58;;;49.83;;
14874;SDS011;7529;48.170;17.138;2022-12-04T04:44:22;54.65;;;50.78;;
14874;SDS011;7529;48.170;17.138;2022-12-04T04:48:41;60.63;;;56.55;;
14874;SDS011;7529;48.170;17.138;2022-12-04T04:53:00;61.65;;;57.60;;
14874;SDS011;7529;48.170;17.138;2022-12-04T04:57:25;61.40;;;57.30;;
14874;SDS011;7529;48.170;17.138;2022-12-04T05:01:41;63.35;;;58.95;;
14874;SDS011;7529;48.170;17.138;2022-12-04T05:05:55;64.10;;;59.83;;
14874;SDS011;7529;48.170;17.138;2022-12-04T05:10:08;66.85;;;62.22;;
14874;SDS011;7529;48.170;17.138;2022-12-04T05:14:20;65.93;;;61.80;;
14874;SDS011;7529;48.170;17.138;2022-12-04T05:18:32;62.10;;;57.70;;
14874;SDS011;7529;48.170;17.138;2022-12-04T05:22:45;63.10;;;58.63;;
14874;SDS011;7529;48.170;17.138;2022-12-04T05:26:57;67.68;;;63.30;;
14874;SDS011;7529;48.170;17.138;2022-12-04T05:31:09;62.15;;;57.95;;
14874;SDS011;7529;48.170;17.138;2022-12-04T05:35:21;65.93;;;61.55;;
14874;SDS011;7529;48.170;17.138;2022-12-04T05:39:32;71.30;;;67.00;;
14874;SDS011;7529;48.170;17.138;2022-12-04T05:43:45;73.38;;;68.65;;
14874;SDS011;7529;48.170;17.138;2022-12-04T05:47:57;66.45;;;62.15;;
14874;SDS011;7529;48.170;17.138;2022-12-04T05:52:10;66.47;;;62.05;;
14874;SDS011;7529;48.170;17.138;2022-12-04T05:56:22;74.43;;;69.85;;
14874;SDS011;7529;48.170;17.138;2022-12-04T06:00:34;51.15;;;47.15;;
14874;SDS011;7529;48.170;17.138;2022-12-04T06:04:46;65.22;;;60.75;;
14874;SDS011;7529;48.170;17.138;2022-12-04T06:08:59;63.78;;;59.50;;
14874;SDS011;7529;48.170;17.138;2022-12-04T06:13:10;68.70;;;64.25;;
14874;SDS011;7529;48.170;17.138;2022-12-04T06:17:28;72.72;;;68.15;;
14874;SDS011;7529;48.170;17.138;2022-12-04T06:21:40;73.22;;;68.45;;
14874;SDS011;7529;48.170;17.138;2022-12-04T06:25:59;68.95;;;64.28;;
14874;SDS011;7529;48.170;17.138;2022-12-04T06:30:13;66.32;;;62.20;;
14874;SDS011;7529;48.170;17.138;2022-12-04T06:34:24;72.60;;;68.03;;
14874;SDS011;7529;48.170;17.138;2022-12-04T06:38:36;77.25;;;72.43;;
14874;SDS011;7529;48.170;17.138;2022-12-04T06:42:48;74.70;;;70.03;;
14874;SDS011;7529;48.170;17.138;2022-12-04T06:47:00;67.28;;;63.33;;
14874;SDS011;7529;48.170;17.138;2022-12-04T06:51:16;66.15;;;62.10;;
14874;SDS011;7529;48.170;17.138;2022-12-04T06:55:29;68.93;;;64.50;;
14874;SDS011;7529;48.170;17.138;2022-12-04T06:59:41;68.78;;;64.35;;
14874;SDS011;7529;48.170;17.138;2022-12-04T07:03:53;63.70;;;59.55;;
14874;SDS011;7529;48.170;17.138;2022-12-04T07:08:07;63.55;;;59.38;;
14874;SDS011;7529;48.170;17.138;2022-12-04T07:12:19;67.55;;;62.85;;
14874;SDS011;7529;48.170;17.138;2022-12-04T07:16:31;63.88;;;59.35;;
14874;SDS011;7529;48.170;17.138;2022-12-04T07:20:45;63.55;;;59.10;;
14874;SDS011;7529;48.170;17.138;2022-12-04T07:24:56;64.00;;;59.55;;
14874;SDS011;7529;48.170;17.138;2022-12-04T07:29:08;54.22;;;50.38;;
14874;SDS011;7529;48.170;17.138;2022-12-04T07:33:20;54.88;;;50.95;;
14874;SDS011;7529;48.170;17.138;2022-12-04T07:37:36;54.53;;;50.90;;
14874;SDS011;7529;48.170;17.138;2022-12-04T07:41:47;51.60;;;47.95;;
14874;SDS011;7529;48.170;17.138;2022-12-04T07:46:03;48.92;;;45.47;;
14874;SDS011;7529;48.170;17.138;2022-12-04T07:50:20;56.83;;;52.45;;
14874;SDS011;7529;48.170;17.138;2022-12-04T07:54:31;61.30;;;57.10;;
14874;SDS011;7529;48.170;17.138;2022-12-04T07:58:45;61.45;;;57.40;;
14874;SDS011;7529;48.170;17.138;2022-12-04T08:02:57;58.10;;;53.97;;
14874;SDS011;7529;48.170;17.138;2022-12-04T08:07:09;52.17;;;48.33;;
14874;SDS011;7529;48.170;17.138;2022-12-04T08:11:21;61.30;;;57.00;;
14874;SDS011;7529;48.170;17.138;2022-12-04T08:15:34;56.83;;;52.75;;
14874;SDS011;7529;48.170;17.138;2022-12-04T08:19:46;60.95;;;56.80;;
14874;SDS011;7529;48.170;17.138;2022-12-04T08:23:58;54.83;;;50.83;;
14874;SDS011;7529;48.170;17.138;2022-12-04T08:28:10;51.75;;;47.88;;
14874;SDS011;7529;48.170;17.138;2022-12-04T08:32:23;56.40;;;52.22;;
14874;SDS011;7529;48.170;17.138;2022-12-04T08:36:34;61.40;;;57.15;;
14874;SDS011;7529;48.170;17.138;2022-12-04T08:40:47;56.25;;;52.38;;
14874;SDS011;7529;48.170;17.138;2022-12-04T08:45:00;58.67;;;54.33;;
14874;SDS011;7529;48.170;17.138;2022-12-04T08:49:12;54.75;;;50.83;;
14874;SDS011;7529;48.170;17.138;2022-12-04T08:53:24;59.70;;;55.65;;
14874;SDS011;7529;48.170;17.138;2022-12-04T08:57:36;55.50;;;51.47;;
14874;SDS011;7529;48.170;17.138;2022-12-04T09:01:49;54.03;;;50.42;;
14874;SDS011;7529;48.170;17.138;2022-12-04T09:06:02;53.65;;;50.05;;
14874;SDS011;7529;48.170;17.138;2022-12-04T09:10:14;58.75;;;54.00;;
14874;SDS011;7529;48.170;17.138;2022-12-04T09:14:26;50.38;;;46.80;;
14874;SDS011;7529;48.170;17.138;2022-12-04T09:18:37;55.95;;;51.95;;
14874;SDS011;7529;48.170;17.138;2022-12-04T09:22:49;48.47;;;44.97;;
14874;SDS011;7529;48.170;17.138;2022-12-04T09:27:01;50.47;;;47.00;;
14874;SDS011;7529;48.170;17.138;2022-12-04T09:31:13;49.75;;;46.40;;
14874;SDS011;7529;48.170;17.138;2022-12-04T09:35:25;54.38;;;50.83;;
14874;SDS011;7529;48.170;17.138;2022-12-04T09:39:37;46.08;;;42.85;;
14874;SDS011;7529;48.170;17.138;2022-12-04T09:44:08;48.35;;;45.30;;
14874;SDS011;7529;48.170;17.138;2022-12-04T09:48:45;51.70;;;48.40;;
14874;SDS011;7529;48.170;17.138;2022-12-04T09:57:21;48.33;;;44.80;;
14874;SDS011;7529;48.170;17.138;2022-12-04T10:01:59;41.35;;;38.60;;
14874;SDS011;7529;48.170;17.138;2022-12-04T10:06:23;41.83;;;39.08;;
14874;SDS011;7529;48.170;17.138;2022-12-04T10:10:41;41.95;;;39.00;;
14874;SDS011;7529;48.170;17.138;2022-12-04T10:24:21;36.33;;;34.17;;
14874;SDS011;7529;48.170;17.138;2022-12-04T10:28:58;36.10;;;33.67;;
14874;SDS011;7529;48.170;17.138;2022-12-04T10:33:16;35.10;;;32.88;;
14874;SDS011;7529;48.170;17.138;2022-12-04T10:37:29;37.75;;;35.42;;
14874;SDS011;7529;48.170;17.138;2022-12-04T10:46:34;36.15;;;33.55;;
14874;SDS011;7529;48.170;17.138;2022-12-04T10:50:47;31.38;;;29.55;;
14874;SDS011;7529;48.170;17.138;2022-12-04T10:54:59;30.23;;;28.45;;
14874;SDS011;7529;48.170;17.138;2022-12-04T10:59:13;28.80;;;26.95;;
14874;SDS011;7529;48.170;17.138;2022-12-04T11:03:26;24.50;;;23.02;;
14874;SDS011;7529;48.170;17.138;2022-12-04T11:07:43;14.10;;;13.20;;
14874;SDS011;7529;48.170;17.138;2022-12-04T11:12:07;11.77;;;11.07;;
14874;SDS011;7529;48.170;17.138;2022-12-04T11:16:37;13.52;;;12.73;;
14874;SDS011;7529;48.170;17.138;2022-12-04T11:20:55;11.93;;;11.13;;
14874;SDS011;7529;48.170;17.138;2022-12-04T11:25:12;13.23;;;12.45;;
14874;SDS011;7529;48.170;17.138;2022-12-04T11:29:34;11.18;;;10.48;;
14874;SDS011;7529;48.170;17.138;2022-12-04T11:34:14;13.05;;;12.35;;
14874;SDS011;7529;48.170;17.138;2022-12-04T11:38:30;13.20;;;12.30;;
14874;SDS011;7529;48.170;17.138;2022-12-04T11:42:44;12.68;;;11.80;;
14874;SDS011;7529;48.170;17.138;2022-12-04T11:47:15;12.30;;;11.48;;
14874;SDS011;7529;48.170;17.138;2022-12-04T11:51:33;11.85;;;11.15;;
14874;SDS011;7529;48.170;17.138;2022-12-04T12:00:55;12.18;;;11.40;;
14874;SDS011;7529;48.170;17.138;2022-12-04T12:05:59;12.68;;;11.77;;
14874;SDS011;7529;48.170;17.138;2022-12-04T12:10:16;11.13;;;10.43;;
14874;SDS011;7529;48.170;17.138;2022-12-04T12:19:37;12.52;;;11.65;;
14874;SDS011;7529;48.170;17.138;2022-12-04T12:41:56;12.40;;;11.30;;
14874;SDS011;7529;48.170;17.138;2022-12-04T12:46:19;12.30;;;11.45;;
14874;SDS011;7529;48.170;17.138;2022-12-04T12:50:48;11.00;;;10.38;;
14874;SDS011;7529;48.170;17.138;2022-12-04T12:59:27;10.52;;;9.85;;
14874;SDS011;7529;48.170;17.138;2022-12-04T13:08:31;11.80;;;11.15;;
14874;SDS011;7529;48.170;17.138;2022-12-04T13:12:52;11.15;;;10.55;;
14874;SDS011;7529;48.170;17.138;2022-12-04T13:17:30;12.02;;;11.05;;
14874;SDS011;7529;48.170;17.138;2022-12-04T13:40:28;11.65;;;10.95;;
14874;SDS011;7529;48.170;17.138;2022-12-04T13:44:54;12.38;;;11.57;;
14874;SDS011;7529;48.170;17.138;2022-12-04T13:53:30;13.50;;;12.60;;
14874;SDS011;7529;48.170;17.138;2022-12-04T13:57:51;12.93;;;12.02;;
14874;SDS011;7529;48.170;17.138;2022-12-04T14:02:24;12.13;;;11.30;;
14874;SDS011;7529;48.170;17.138;2022-12-04T14:06:44;13.45;;;12.35;;
14874;SDS011;7529;48.170;17.138;2022-12-04T14:15:23;13.77;;;12.88;;
14874;SDS011;7529;48.170;17.138;2022-12-04T14:19:37;16.80;;;15.82;;
14874;SDS011;7529;48.170;17.138;2022-12-04T14:23:51;14.55;;;13.55;;
14874;SDS011;7529;48.170;17.138;2022-12-04T14:29:04;13.13;;;12.23;;
14874;SDS011;7529;48.170;17.138;2022-12-04T14:32:45;15.20;;;14.07;;
14874;SDS011;7529;48.170;17.138;2022-12-04T14:36:59;13.82;;;12.82;;
14874;SDS011;7529;48.170;17.138;2022-12-04T14:41:22;12.57;;;11.85;;
14874;SDS011;7529;48.170;17.138;2022-12-04T15:03:59;14.85;;;13.85;;
14874;SDS011;7529;48.170;17.138;2022-12-04T15:08:59;19.83;;;18.60;;
14874;SDS011;7529;48.170;17.138;2022-12-04T15:13:31;16.52;;;15.52;;
14874;SDS011;7529;48.170;17.138;2022-12-04T15:22:25;19.75;;;18.27;;
14874;SDS011;7529;48.170;17.138;2022-12-04T15:26:38;37.15;;;34.50;;
14874;SDS011;7529;48.170;17.138;2022-12-04T15:30:50;18.35;;;17.00;;
14874;SDS011;7529;48.170;17.138;2022-12-04T15:35:04;19.15;;;17.70;;
14874;SDS011;7529;48.170;17.138;2022-12-04T15:39:19;18.65;;;17.35;;
14874;SDS011;7529;48.170;17.138;2022-12-04T15:43:42;20.08;;;18.27;;
14874;SDS011;7529;48.170;17.138;2022-12-04T15:47:54;33.65;;;31.50;;
14874;SDS011;7529;48.170;17.138;2022-12-04T15:52:15;18.92;;;17.50;;
14874;SDS011;7529;48.170;17.138;2022-12-04T15:56:28;19.55;;;18.23;;
14874;SDS011;7529;48.170;17.138;2022-12-04T16:00:40;21.25;;;19.75;;
14874;SDS011;7529;48.170;17.138;2022-12-04T16:04:52;23.08;;;21.38;;
14874;SDS011;7529;48.170;17.138;2022-12-04T16:13:35;24.60;;;22.90;;
14874;SDS011;7529;48.170;17.138;2022-12-04T16:17:47;24.00;;;21.67;;
14874;SDS011;7529;48.170;17.138;2022-12-04T16:22:00;48.00;;;44.85;;
14874;SDS011;7529;48.170;17.138;2022-12-04T16:26:17;20.88;;;19.27;;
14874;SDS011;7529;48.170;17.138;2022-12-04T16:30:30;25.50;;;23.52;;
14874;SDS011;7529;48.170;17.138;2022-12-04T16:34:43;24.58;;;22.67;;
14874;SDS011;7529;48.170;17.138;2022-12-04T16:38:54;40.95;;;38.33;;
14874;SDS011;7529;48.170;17.138;2022-12-04T16:43:07;75.57;;;71.13;;
14874;SDS011;7529;48.170;17.138;2022-12-04T16:47:21;43.35;;;40.65;;
14874;SDS011;7529;48.170;17.138;2022-12-04T16:51:32;21.25;;;19.80;;
14874;SDS011;7529;48.170;17.138;2022-12-04T16:55:47;80.65;;;76.10;;
14874;SDS011;7529;48.170;17.138;2022-12-04T17:00:00;23.23;;;21.52;;
14874;SDS011;7529;48.170;17.138;2022-12-04T17:04:15;82.25;;;77.93;;
14874;SDS011;7529;48.170;17.138;2022-12-04T17:08:28;24.48;;;22.73;;
14874;SDS011;7529;48.170;17.138;2022-12-04T17:12:41;79.82;;;75.22;;
14874;SDS011;7529;48.170;17.138;2022-12-04T17:16:53;99.43;;;93.85;;
14874;SDS011;7529;48.170;17.138;2022-12-04T17:21:06;85.97;;;80.60;;
14874;SDS011;7529;48.170;17.138;2022-12-04T17:25:18;114.57;;;107.60;;
14874;SDS011;7529;48.170;17.138;2022-12-04T17:29:30;119.55;;;112.53;;
14874;SDS011;7529;48.170;17.138;2022-12-04T17:33:42;129.82;;;122.82;;
14874;SDS011;7529;48.170;17.138;2022-12-04T17:37:53;120.28;;;113.35;;
14874;SDS011;7529;48.170;17.138;2022-12-04T17:42:06;131.02;;;123.60;;
14874;SDS011;7529;48.170;17.138;2022-12-04T17:46:20;139.15;;;131.52;;
14874;SDS011;7529;48.170;17.138;2022-12-04T17:50:35;143.57;;;135.80;;
14874;SDS011;7529;48.170;17.138;2022-12-04T17:54:48;134.75;;;127.32;;
14874;SDS011;7529;48.170;17.138;2022-12-04T17:59:00;127.93;;;121.10;;
14874;SDS011;7529;48.170;17.138;2022-12-04T18:03:12;144.15;;;136.40;;
14874;SDS011;7529;48.170;17.138;2022-12-04T18:07:23;147.13;;;139.10;;
14874;SDS011;7529;48.170;17.138;2022-12-04T18:11:35;141.05;;;133.27;;
14874;SDS011;7529;48.170;17.138;2022-12-04T18:15:48;129.07;;;122.07;;
14874;SDS011;7529;48.170;17.138;2022-12-04T18:20:00;135.73;;;128.50;;
14874;SDS011;7529;48.170;17.138;2022-12-04T18:24:11;118.00;;;111.45;;
14874;SDS011;7529;48.170;17.138;2022-12-04T18:28:25;136.60;;;129.15;;
14874;SDS011;7529;48.170;17.138;2022-12-04T18:32:38;117.85;;;111.47;;
14874;SDS011;7529;48.170;17.138;2022-12-04T18:36:50;129.77;;;122.60;;
14874;SDS011;7529;48.170;17.138;2022-12-04T18:41:05;138.40;;;130.80;;
14874;SDS011;7529;48.170;17.138;2022-12-04T18:45:19;147.13;;;139.52;;
14874;SDS011;7529;48.170;17.138;2022-12-04T18:49:31;28.42;;;26.13;;
14874;SDS011;7529;48.170;17.138;2022-12-04T18:53:44;77.32;;;72.32;;
14874;SDS011;7529;48.170;17.138;2022-12-04T18:57:58;28.42;;;26.20;;
14874;SDS011;7529;48.170;17.138;2022-12-04T19:02:10;29.05;;;26.83;;
14874;SDS011;7529;48.170;17.138;2022-12-04T19:06:25;66.70;;;62.03;;
14874;SDS011;7529;48.170;17.138;2022-12-04T19:10:38;28.35;;;26.33;;
14874;SDS011;7529;48.170;17.138;2022-12-04T19:14:50;28.27;;;25.52;;
14874;SDS011;7529;48.170;17.138;2022-12-04T19:19:01;28.48;;;26.38;;
14874;SDS011;7529;48.170;17.138;2022-12-04T19:23:13;50.15;;;46.80;;
14874;SDS011;7529;48.170;17.138;2022-12-04T19:27:25;29.55;;;27.10;;
14874;SDS011;7529;48.170;17.138;2022-12-04T19:31:37;85.03;;;79.93;;
14874;SDS011;7529;48.170;17.138;2022-12-04T19:35:56;29.90;;;27.52;;
14874;SDS011;7529;48.170;17.138;2022-12-04T19:40:15;31.42;;;29.02;;
14874;SDS011;7529;48.170;17.138;2022-12-04T19:44:27;65.10;;;61.05;;
14874;SDS011;7529;48.170;17.138;2022-12-04T19:48:38;30.48;;;27.92;;
14874;SDS011;7529;48.170;17.138;2022-12-04T19:52:50;30.30;;;27.88;;
14874;SDS011;7529;48.170;17.138;2022-12-04T19:57:02;32.75;;;30.25;;
14874;SDS011;7529;48.170;17.138;2022-12-04T20:01:14;30.08;;;27.77;;
14874;SDS011;7529;48.170;17.138;2022-12-04T20:05:28;67.80;;;63.38;;
14874;SDS011;7529;48.170;17.138;2022-12-04T20:09:40;28.73;;;26.42;;
14874;SDS011;7529;48.170;17.138;2022-12-04T20:13:51;30.02;;;27.77;;
14874;SDS011;7529;48.170;17.138;2022-12-04T20:18:05;31.08;;;28.42;;
14874;SDS011;7529;48.170;17.138;2022-12-04T20:22:17;35.55;;;32.95;;
14874;SDS011;7529;48.170;17.138;2022-12-04T20:26:34;27.05;;;24.92;;
14874;SDS011;7529;48.170;17.138;2022-12-04T20:30:47;34.78;;;31.67;;
14874;SDS011;7529;48.170;17.138;2022-12-04T20:35:00;32.45;;;29.85;;
14874;SDS011;7529;48.170;17.138;2022-12-04T20:39:13;31.10;;;28.63;;
14874;SDS011;7529;48.170;17.138;2022-12-04T20:43:26;32.17;;;29.67;;
14874;SDS011;7529;48.170;17.138;2022-12-04T20:47:37;31.42;;;29.23;;
14874;SDS011;7529;48.170;17.138;2022-12-04T20:51:49;31.27;;;29.08;;
14874;SDS011;7529;48.170;17.138;2022-12-04T20:56:01;31.83;;;29.58;;
14874;SDS011;7529;48.170;17.138;2022-12-04T21:00:14;31.63;;;29.27;;
14874;SDS011;7529;48.170;17.138;2022-12-04T21:04:26;29.63;;;27.42;;
14874;SDS011;7529;48.170;17.138;2022-12-04T21:08:40;30.17;;;27.75;;
14874;SDS011;7529;48.170;17.138;2022-12-04T21:13:10;32.38;;;29.42;;
14874;SDS011;7529;48.170;17.138;2022-12-04T21:17:40;31.70;;;29.25;;
14874;SDS011;7529;48.170;17.138;2022-12-04T21:21:54;30.45;;;28.15;;
14874;SDS011;7529;48.170;17.138;2022-12-04T21:26:08;31.50;;;28.88;;
14874;SDS011;7529;48.170;17.138;2022-12-04T21:30:21;64.35;;;59.75;;
14874;SDS011;7529;48.170;17.138;2022-12-04T21:34:35;50.17;;;46.53;;
14874;SDS011;7529;48.170;17.138;2022-12-04T21:38:46;30.73;;;28.40;;
14874;SDS011;7529;48.170;17.138;2022-12-04T21:42:58;30.73;;;27.45;;
14874;SDS011;7529;48.170;17.138;2022-12-04T21:47:10;31.35;;;28.45;;
14874;SDS011;7529;48.170;17.138;2022-12-04T21:51:22;27.35;;;25.02;;
14874;SDS011;7529;48.170;17.138;2022-12-04T21:55:34;27.35;;;25.23;;
14874;SDS011;7529;48.170;17.138;2022-12-04T21:59:45;25.77;;;24.00;;
14874;SDS011;7529;48.170;17.138;2022-12-04T22:03:57;26.90;;;24.70;;
14874;SDS011;7529;48.170;17.138;2022-12-04T22:08:09;28.40;;;26.30;;
14874;SDS011;7529;48.170;17.138;2022-12-04T22:12:24;80.18;;;75.88;;
14874;SDS011;7529;48.170;17.138;2022-12-04T22:16:38;26.13;;;24.13;;
14874;SDS011;7529;48.170;17.138;2022-12-04T22:20:53;28.23;;;26.08;;
14874;SDS011;7529;48.170;17.138;2022-12-04T22:25:04;25.42;;;23.67;;
14874;SDS011;7529;48.170;17.138;2022-12-04T22:29:16;66.50;;;62.40;;
14874;SDS011;7529;48.170;17.138;2022-12-04T22:33:28;27.45;;;25.58;;
14874;SDS011;7529;48.170;17.138;2022-12-04T22:37:40;28.92;;;26.63;;
14874;SDS011;7529;48.170;17.138;2022-12-04T22:41:52;26.02;;;24.42;;
14874;SDS011;7529;48.170;17.138;2022-12-04T22:46:03;26.38;;;24.58;;
14874;SDS011;7529;48.170;17.138;2022-12-04T22:50:15;24.65;;;22.65;;
14874;SDS011;7529;48.170;17.138;2022-12-04T22:54:28;24.13;;;22.25;;
14874;SDS011;7529;48.170;17.138;2022-12-04T22:58:40;24.45;;;22.67;;
14874;SDS011;7529;48.170;17.138;2022-12-04T23:02:53;26.27;;;24.52;;
14874;SDS011;7529;48.170;17.138;2022-12-04T23:07:05;25.15;;;23.35;;
14874;SDS011;7529;48.170;17.138;2022-12-04T23:11:19;23.73;;;21.90;;
14874;SDS011;7529;48.170;17.138;2022-12-04T23:15:34;21.00;;;19.67;;
14874;SDS011;7529;48.170;17.138;2022-12-04T23:19:49;21.70;;;20.20;;
14874;SDS011;7529;48.170;17.138;2022-12-04T23:24:01;67.57;;;63.92;;
14874;SDS011;7529;48.170;17.138;2022-12-04T23:28:13;23.52;;;21.42;;
14874;SDS011;7529;48.170;17.138;2022-12-04T23:32:24;19.80;;;18.20;;
14874;SDS011;7529;48.170;17.138;2022-12-04T23:36:36;26.27;;;24.27;;
14874;SDS011;7529;48.170;17.138;2022-12-04T23:40:48;22.98;;;21.50;;
14874;SDS011;7529;48.170;17.138;2022-12-04T23:45:01;21.90;;;20.42;;
14874;SDS011;7529;48.170;17.138;2022-12-04T23:49:13;23.63;;;21.85;;
14874;SDS011;7529;48.170;17.138;2022-12-04T23:53:25;26.08;;;24.05;;
14874;SDS011;7529;48.170;17.138;2022-12-04T23:57:37;53.70;;;50.17;;
